Time;durP1;ratioP1;P1;durP2;ratioP2;P2;SDS_P1;SDS_P2;PMS_P1;PMS_P2;Temp;Humidity;BMP_temperature;BMP_pressure;BME280_temperature;BME280_humidity;BME280_pressure;Samples;Min_cycle;Max_cycle;Signal;HPM_P1;HPM_P2
2021/01/22 00:02:06;;;;;;;2.38;1.10;;;9.20;85.10;;;;;;5058375;28;20135;-66
2021/01/22 00:04:31;;;;;;;1.50;0.98;;;9.20;84.60;;;;;;5058011;28;20036;-66
2021/01/22 00:06:57;;;;;;;2.00;1.00;;;9.20;85.00;;;;;;5058167;28;20027;-66
2021/01/22 00:09:23;;;;;;;1.40;1.10;;;9.30;83.60;;;;;;5057804;28;20563;-66
2021/01/22 00:11:49;;;;;;;1.25;1.00;;;9.40;82.70;;;;;;5058607;28;20824;-64
2021/01/22 00:14:14;;;;;;;2.35;1.13;;;9.40;82.40;;;;;;5057383;28;20028;-64
2021/01/22 00:16:41;;;;;;;2.90;0.90;;;9.40;83.00;;;;;;5056699;28;20055;-64
2021/01/22 00:19:07;;;;;;;1.45;0.98;;;9.50;82.50;;;;;;5057813;28;20029;-64
2021/01/22 00:21:33;;;;;;;2.40;0.82;;;9.50;80.90;;;;;;5057803;28;20036;-64
2021/01/22 00:23:58;;;;;;;2.10;0.93;;;9.50;81.00;;;;;;5057793;28;20050;-64
2021/01/22 00:26:25;;;;;;;1.25;0.90;;;9.60;80.60;;;;;;5057158;28;20273;-64
2021/01/22 00:28:51;;;;;;;1.90;1.20;;;9.60;80.90;;;;;;5057823;28;20051;-64
2021/01/22 00:31:16;;;;;;;1.38;0.90;;;9.60;80.20;;;;;;5057092;28;20029;-64
2021/01/22 00:33:42;;;;;;;1.95;1.10;;;9.60;79.20;;;;;;5057956;28;20946;-64
2021/01/22 00:36:08;;;;;;;2.03;1.00;;;9.70;79.40;;;;;;5056773;28;20048;-64
2021/01/22 00:38:34;;;;;;;1.38;0.70;;;9.70;79.00;;;;;;5057155;28;20072;-66
2021/01/22 00:41:00;;;;;;;1.15;0.88;;;9.70;78.00;;;;;;5057475;28;20086;-67
2021/01/22 00:43:25;;;;;;;1.77;1.27;;;9.80;77.80;;;;;;5057727;28;20105;-66
2021/01/22 00:45:52;;;;;;;1.77;1.05;;;9.90;77.10;;;;;;5056977;28;20032;-66
2021/01/22 00:48:17;;;;;;;2.40;1.35;;;10.00;76.50;;;;;;5055770;28;20601;-66
2021/01/22 00:50:43;;;;;;;1.98;1.15;;;10.00;75.70;;;;;;5057893;28;20020;-67
2021/01/22 00:53:10;;;;;;;1.17;0.70;;;10.00;76.00;;;;;;5055875;28;20539;-66
2021/01/22 00:55:36;;;;;;;1.42;0.90;;;10.10;75.60;;;;;;5055387;28;20037;-66
2021/01/22 00:58:08;;;;;;;1.73;1.20;;;10.20;74.80;;;;;;5057591;28;20051;-66
2021/01/22 01:00:33;;;;;;;2.75;1.05;;;10.30;74.30;;;;;;5057181;28;20404;-67
2021/01/22 01:03:16;;;;;;;1.15;0.90;;;10.40;74.00;;;;;;5056231;28;20071;-67
2021/01/22 01:05:41;;;;;;;1.92;0.80;;;10.40;74.10;;;;;;5056760;28;20055;-66
2021/01/22 01:08:07;;;;;;;1.52;0.93;;;10.50;73.20;;;;;;5055545;28;20074;-67
2021/01/22 01:10:53;;;;;;;1.20;0.70;;;10.40;73.90;;;;;;5057229;28;20450;-67
2021/01/22 01:13:37;;;;;;;0.90;0.63;;;10.40;74.20;;;;;;5057501;28;20067;-66
2021/01/22 01:16:15;;;;;;;1.30;0.80;;;10.50;73.20;;;;;;5038197;28;20033;-66
2021/01/22 01:18:41;;;;;;;0.65;0.65;;;10.50;73.40;;;;;;5057604;28;20124;-66
2021/01/22 01:21:07;;;;;;;0.93;0.52;;;10.60;73.60;;;;;;5056000;28;20040;-67
2021/01/22 01:23:33;;;;;;;1.33;0.70;;;10.50;73.30;;;;;;5055568;28;20035;-67
2021/01/22 01:25:58;;;;;;;1.00;0.70;;;10.60;73.10;;;;;;5056969;28;20037;-66
2021/01/22 01:28:24;;;;;;;1.10;0.90;;;10.60;73.40;;;;;;5055336;28;20028;-67
2021/01/22 01:30:50;;;;;;;2.08;0.70;;;10.70;74.00;;;;;;5056930;28;20035;-67
2021/01/22 01:33:15;;;;;;;1.20;0.90;;;10.70;73.50;;;;;;5055235;28;20035;-67
2021/01/22 01:35:41;;;;;;;2.85;0.80;;;10.70;73.00;;;;;;5056484;28;20028;-67
2021/01/22 01:38:06;;;;;;;2.13;0.85;;;10.70;73.20;;;;;;5056234;28;20811;-66
2021/01/22 01:40:32;;;;;;;1.27;0.60;;;10.70;73.00;;;;;;5056696;28;20400;-66
2021/01/22 01:42:58;;;;;;;0.52;0.52;;;10.70;73.20;;;;;;5055602;28;20044;-66
2021/01/22 01:45:25;;;;;;;1.17;0.70;;;10.80;72.70;;;;;;5054674;28;20029;-67
2021/01/22 01:47:51;;;;;;;1.95;0.70;;;10.90;72.40;;;;;;5056587;28;20064;-67
2021/01/22 01:50:16;;;;;;;0.47;0.47;;;10.90;72.10;;;;;;5057012;28;20198;-66
2021/01/22 01:52:42;;;;;;;0.70;0.70;;;10.90;72.30;;;;;;5055043;28;20025;-67
2021/01/22 01:55:09;;;;;;;1.83;0.60;;;11.00;72.40;;;;;;5052453;28;20036;-67
2021/01/22 01:57:35;;;;;;;1.15;0.52;;;10.90;72.90;;;;;;5055297;28;20039;-66
2021/01/22 02:00:03;;;;;;;2.05;0.55;;;10.90;72.70;;;;;;5056194;28;20366;-67
2021/01/22 02:02:30;;;;;;;0.30;0.30;;;10.90;72.30;;;;;;5055628;28;20036;-66
2021/01/22 02:04:57;;;;;;;0.60;0.60;;;10.90;72.90;;;;;;5055800;28;20149;-66
2021/01/22 02:07:23;;;;;;;2.67;0.60;;;11.00;72.50;;;;;;5056057;28;20036;-67
2021/01/22 02:09:49;;;;;;;1.75;0.50;;;11.00;72.50;;;;;;5056540;28;20109;-66
2021/01/22 02:12:16;;;;;;;2.67;0.50;;;11.00;72.10;;;;;;5053750;28;20051;-67
2021/01/22 02:14:43;;;;;;;0.73;0.40;;;11.00;72.00;;;;;;5056833;28;20025;-66
2021/01/22 02:17:09;;;;;;;0.93;0.50;;;11.10;71.80;;;;;;5056422;28;20039;-66
2021/01/22 02:20:08;;;;;;;0.95;0.40;;;11.00;71.70;;;;;;5060386;28;20044;-67
2021/01/22 02:22:34;;;;;;;0.68;0.60;;;11.00;72.20;;;;;;5060004;28;20036;-67
2021/01/22 02:25:01;;;;;;;0.95;0.57;;;11.00;71.80;;;;;;5059919;28;20037;-66
2021/01/22 02:27:27;;;;;;;0.43;0.30;;;11.00;71.20;;;;;;5060543;28;20492;-66
2021/01/22 02:29:53;;;;;;;1.48;0.60;;;11.00;71.20;;;;;;5060070;28;20044;-64
2021/01/22 02:32:20;;;;;;;2.38;0.32;;;11.10;71.30;;;;;;5060272;28;20028;-64
2021/01/22 02:34:47;;;;;;;0.50;0.40;;;11.10;71.10;;;;;;5058824;28;20094;-64
2021/01/22 02:37:17;;;;;;;0.40;0.40;;;11.10;70.80;;;;;;5057155;28;20036;-64
2021/01/22 02:39:49;;;;;;;1.90;0.60;;;11.10;71.00;;;;;;5059261;28;20937;-64
2021/01/22 02:42:16;;;;;;;1.52;0.52;;;11.00;71.00;;;;;;5059678;28;20028;-65
2021/01/22 02:44:43;;;;;;;3.92;0.43;;;11.10;70.30;;;;;;5059228;28;20560;-66
2021/01/22 02:47:10;;;;;;;1.88;0.38;;;11.00;70.20;;;;;;5059014;28;20052;-70
2021/01/22 02:49:36;;;;;;;1.60;0.63;;;11.00;70.30;;;;;;5057602;28;20029;-64
2021/01/22 02:52:03;;;;;;;0.90;0.50;;;11.00;70.50;;;;;;5059193;28;20032;-64
2021/01/22 02:54:28;;;;;;;0.82;0.40;;;11.00;70.10;;;;;;5059870;28;20032;-64
2021/01/22 02:57:05;;;;;;;0.88;0.40;;;11.10;69.60;;;;;;5055953;28;20063;-64
2021/01/22 02:59:59;;;;;;;1.70;0.50;;;11.00;69.80;;;;;;5058331;28;20587;-64
2021/01/22 03:03:03;;;;;;;1.27;0.47;;;11.00;69.90;;;;;;5058237;28;20039;-64
2021/01/22 03:05:31;;;;;;;1.00;0.55;;;11.00;69.50;;;;;;5059193;28;20037;-65
2021/01/22 03:08:03;;;;;;;0.88;0.65;;;10.90;69.70;;;;;;5059615;28;20029;-65
2021/01/22 03:10:30;;;;;;;0.77;0.57;;;11.00;69.80;;;;;;5059230;28;20698;-65
2021/01/22 03:12:57;;;;;;;0.60;0.52;;;10.90;69.60;;;;;;5060115;28;20036;-64
2021/01/22 03:15:23;;;;;;;1.70;0.60;;;10.90;69.60;;;;;;5058799;28;20048;-65
2021/01/22 03:17:49;;;;;;;1.00;0.47;;;10.90;69.20;;;;;;5059281;28;20032;-65
2021/01/22 03:20:17;;;;;;;2.17;1.15;;;10.90;69.00;;;;;;5057570;28;20124;-65
2021/01/22 03:22:43;;;;;;;3.38;1.38;;;10.90;69.10;;;;;;5058177;28;20064;-63
2021/01/22 03:25:13;;;;;;;4.53;1.60;;;10.90;69.20;;;;;;5058498;28;20127;-64
2021/01/22 03:27:39;;;;;;;0.77;0.50;;;10.80;69.00;;;;;;5058369;28;20111;-64
2021/01/22 03:30:06;;;;;;;1.40;0.70;;;10.90;68.80;;;;;;5057359;28;20889;-64
2021/01/22 03:32:32;;;;;;;0.57;0.57;;;10.90;68.90;;;;;;5058479;28;20775;-65
2021/01/22 03:34:58;;;;;;;3.03;0.70;;;10.80;68.80;;;;;;5056583;28;20062;-65
2021/01/22 03:37:24;;;;;;;2.13;0.60;;;10.80;69.00;;;;;;5056591;28;20032;-64
2021/01/22 03:39:50;;;;;;;2.53;0.90;;;10.70;69.20;;;;;;5058376;28;20042;-65
2021/01/22 03:42:15;;;;;;;1.50;0.50;;;10.80;68.90;;;;;;5058317;28;20131;-64
2021/01/22 03:44:41;;;;;;;0.95;0.90;;;10.80;68.10;;;;;;5058232;28;20041;-64
2021/01/22 03:47:07;;;;;;;1.17;0.70;;;10.80;67.80;;;;;;5058358;28;20055;-64
2021/01/22 03:49:33;;;;;;;1.13;0.50;;;10.80;68.30;;;;;;5058153;28;20028;-64
2021/01/22 03:52:00;;;;;;;2.63;0.60;;;10.80;68.10;;;;;;5058504;28;20028;-65
2021/01/22 03:54:26;;;;;;;3.03;1.15;;;10.70;68.20;;;;;;5058312;28;20718;-65
2021/01/22 03:56:51;;;;;;;0.80;0.60;;;10.70;68.10;;;;;;5058105;28;20047;-65
2021/01/22 03:59:17;;;;;;;1.67;1.13;;;10.70;68.00;;;;;;5057498;28;20032;-65
2021/01/22 04:01:42;;;;;;;0.57;0.50;;;10.70;68.10;;;;;;5058679;28;20675;-64
2021/01/22 04:04:08;;;;;;;1.00;0.43;;;10.70;67.60;;;;;;5058127;28;20606;-64
2021/01/22 04:06:35;;;;;;;1.42;0.80;;;10.70;67.20;;;;;;5057660;28;20052;-64
2021/01/22 04:09:02;;;;;;;1.38;0.77;;;10.70;67.30;;;;;;5056417;28;20040;-64
2021/01/22 04:11:28;;;;;;;0.90;0.60;;;10.70;67.80;;;;;;5056090;28;20463;-63
2021/01/22 04:13:53;;;;;;;1.67;0.70;;;10.70;67.40;;;;;;5057624;28;20054;-64
2021/01/22 04:16:19;;;;;;;0.63;0.57;;;10.70;67.50;;;;;;5057103;28;20036;-65
2021/01/22 04:18:45;;;;;;;2.25;0.60;;;10.70;67.30;;;;;;5067666;28;20036;-65
2021/01/22 04:21:10;;;;;;;0.93;0.70;;;10.80;67.00;;;;;;5056476;28;20050;-65
2021/01/22 04:23:36;;;;;;;0.82;0.60;;;10.80;66.60;;;;;;5056252;28;20048;-65
2021/01/22 04:26:02;;;;;;;0.35;0.32;;;10.70;66.80;;;;;;5056857;28;20040;-64
2021/01/22 04:28:27;;;;;;;0.85;0.73;;;10.70;66.80;;;;;;5057326;28;20327;-64
2021/01/22 04:30:53;;;;;;;2.15;0.73;;;10.70;66.70;;;;;;5057521;28;20094;-65
2021/01/22 04:33:20;;;;;;;2.08;0.45;;;10.70;66.20;;;;;;5057041;28;20135;-64
2021/01/22 04:35:45;;;;;;;0.73;0.50;;;10.70;66.40;;;;;;5057277;28;20476;-64
2021/01/22 04:38:11;;;;;;;3.15;0.43;;;10.70;66.20;;;;;;5057210;28;20069;-64
2021/01/22 04:40:37;;;;;;;1.00;0.52;;;10.70;66.40;;;;;;5054399;28;20039;-64
2021/01/22 04:43:03;;;;;;;0.50;0.50;;;10.70;66.20;;;;;;5056946;28;20062;-64
2021/01/22 04:45:28;;;;;;;0.30;0.30;;;10.60;66.50;;;;;;5053840;28;20066;-63
2021/01/22 04:47:54;;;;;;;1.55;0.73;;;10.60;66.80;;;;;;5057018;28;20041;-63
2021/01/22 04:50:21;;;;;;;1.15;0.70;;;10.50;66.80;;;;;;5057184;28;20036;-63
2021/01/22 04:52:48;;;;;;;2.90;0.77;;;10.50;66.90;;;;;;5057239;28;20036;-64
2021/01/22 04:55:16;;;;;;;0.85;0.73;;;10.60;66.20;;;;;;5057085;28;20151;-63
2021/01/22 04:57:43;;;;;;;1.25;0.60;;;10.60;66.20;;;;;;5057137;28;20040;-64
2021/01/22 05:00:11;;;;;;;1.73;0.90;;;10.60;66.70;;;;;;5056990;28;20093;-63
2021/01/22 05:02:37;;;;;;;1.30;0.40;;;10.60;66.50;;;;;;5055270;28;20147;-63
2021/01/22 05:05:07;;;;;;;2.05;0.68;;;10.70;66.30;;;;;;5056345;28;20036;-63
2021/01/22 05:07:33;;;;;;;0.55;0.52;;;10.60;65.70;;;;;;5057138;28;20033;-63
2021/01/22 05:09:59;;;;;;;1.73;0.70;;;10.60;65.60;;;;;;5056995;28;20607;-63
2021/01/22 05:12:45;;;;;;;0.90;0.70;;;10.70;66.00;;;;;;5055223;28;20037;-63
2021/01/22 05:15:17;;;;;;;0.60;0.57;;;10.70;65.70;;;;;;5056565;28;20746;-63
2021/01/22 05:18:00;;;;;;;0.80;0.68;;;10.70;65.50;;;;;;5057197;28;20280;-63
2021/01/22 05:20:38;;;;;;;0.73;0.40;;;10.70;65.50;;;;;;5057052;28;20064;-64
2021/01/22 05:23:05;;;;;;;1.30;0.50;;;10.60;65.30;;;;;;5056995;28;20658;-64
2021/01/22 05:25:31;;;;;;;1.77;0.60;;;10.60;66.10;;;;;;5056607;28;20033;-64
2021/01/22 05:27:58;;;;;;;0.50;0.40;;;10.50;65.80;;;;;;5056625;28;20126;-63
2021/01/22 05:30:26;;;;;;;0.50;0.50;;;10.60;66.30;;;;;;5055618;28;20043;-64
2021/01/22 05:32:52;;;;;;;2.20;0.70;;;10.50;66.30;;;;;;5056733;28;20041;-64
2021/01/22 05:35:31;;;;;;;0.50;0.35;;;10.50;66.20;;;;;;5055936;28;20029;-63
2021/01/22 05:37:57;;;;;;;0.60;0.43;;;10.50;66.10;;;;;;5038515;28;21221;-63
2021/01/22 05:40:23;;;;;;;0.60;0.50;;;10.50;66.20;;;;;;5056246;28;20127;-63
2021/01/22 05:42:54;;;;;;;0.80;0.40;;;10.50;67.00;;;;;;5055132;28;20853;-63
2021/01/22 05:45:39;;;;;;;0.77;0.60;;;10.50;66.10;;;;;;5056474;28;20193;-64
2021/01/22 05:48:16;;;;;;;0.77;0.40;;;10.60;66.10;;;;;;5055959;28;20029;-63
2021/01/22 05:50:45;;;;;;;2.25;0.70;;;10.60;66.20;;;;;;5056385;28;20036;-63
2021/01/22 05:53:12;;;;;;;0.60;0.50;;;10.60;65.50;;;;;;5057724;28;20036;-63
2021/01/22 05:55:38;;;;;;;0.95;0.47;;;10.60;65.80;;;;;;5058723;28;20037;-64
2021/01/22 05:58:04;;;;;;;0.47;0.30;;;10.60;66.30;;;;;;5060164;28;20043;-63
2021/01/22 06:00:30;;;;;;;2.20;0.50;;;10.50;66.30;;;;;;5058842;28;20043;-63
2021/01/22 06:02:55;;;;;;;0.60;0.43;;;10.50;66.00;;;;;;5058960;28;20060;-63
2021/01/22 06:05:22;;;;;;;0.30;0.30;;;10.60;66.40;;;;;;5058202;28;20485;-63
2021/01/22 06:08:08;;;;;;;0.60;0.50;;;10.60;66.10;;;;;;5058823;28;20107;-64
2021/01/22 06:10:40;;;;;;;0.68;0.38;;;10.60;66.20;;;;;;5058892;28;20098;-64
2021/01/22 06:13:09;;;;;;;1.55;0.50;;;10.50;66.50;;;;;;5036534;28;20486;-63
2021/01/22 06:15:36;;;;;;;4.20;0.70;;;10.50;66.60;;;;;;5057317;28;20135;-63
2021/01/22 06:18:03;;;;;;;1.10;0.50;;;10.50;66.50;;;;;;5056813;28;20068;-63
2021/01/22 06:20:30;;;;;;;0.60;0.57;;;10.50;66.80;;;;;;5056161;28;20037;-64
2021/01/22 06:22:56;;;;;;;0.40;0.40;;;10.50;66.60;;;;;;5057117;28;20043;-64
2021/01/22 06:25:22;;;;;;;1.83;0.57;;;10.50;66.70;;;;;;5058737;28;20722;-64
2021/01/22 06:27:50;;;;;;;0.75;0.60;;;10.40;66.60;;;;;;5059650;28;20116;-64
2021/01/22 06:30:16;;;;;;;0.88;0.43;;;10.40;66.60;;;;;;5059798;28;20036;-63
2021/01/22 06:32:44;;;;;;;0.57;0.57;;;10.50;67.10;;;;;;5059398;28;20119;-64
2021/01/22 06:35:10;;;;;;;0.30;0.30;;;10.50;66.90;;;;;;5055050;28;20037;-64
2021/01/22 06:37:38;;;;;;;0.50;0.40;;;10.50;67.10;;;;;;5059553;28;20045;-64
2021/01/22 06:40:04;;;;;;;0.47;0.30;;;10.50;66.90;;;;;;5055046;28;20029;-64
2021/01/22 06:42:36;;;;;;;0.32;0.32;;;10.50;66.80;;;;;;5056199;28;20127;-63
2021/01/22 06:45:02;;;;;;;1.52;0.70;;;10.40;67.30;;;;;;5059196;28;20131;-64
2021/01/22 06:47:28;;;;;;;0.85;0.50;;;10.40;67.60;;;;;;5059708;28;20098;-66
2021/01/22 06:49:54;;;;;;;1.08;0.65;;;10.50;67.10;;;;;;5059473;28;20721;-66
2021/01/22 06:52:20;;;;;;;0.43;0.40;;;10.40;67.10;;;;;;5057308;28;20093;-67
2021/01/22 06:55:04;;;;;;;2.28;0.57;;;10.40;67.10;;;;;;5058413;28;20090;-66
2021/01/22 06:57:30;;;;;;;1.48;0.73;;;10.40;67.30;;;;;;5053498;28;20044;-68
2021/01/22 06:59:57;;;;;;;1.33;0.60;;;10.40;67.40;;;;;;5053189;28;20040;-66
2021/01/22 07:02:32;;;;;;;1.02;0.60;;;10.40;67.80;;;;;;5058961;28;20039;-66
2021/01/22 07:04:59;;;;;;;0.40;0.40;;;10.40;67.80;;;;;;5052830;28;20037;-66
2021/01/22 07:07:43;;;;;;;2.25;0.77;;;10.50;67.80;;;;;;5058856;28;20091;-66
2021/01/22 07:10:09;;;;;;;1.23;0.55;;;10.40;67.90;;;;;;5058439;28;20025;-67
2021/01/22 07:12:35;;;;;;;0.85;0.68;;;10.40;67.90;;;;;;5059108;28;20025;-66
2021/01/22 07:15:01;;;;;;;0.75;0.30;;;10.40;67.90;;;;;;5058329;28;20037;-68
2021/01/22 07:17:28;;;;;;;0.93;0.60;;;10.40;67.60;;;;;;5055536;28;20086;-66
2021/01/22 07:19:54;;;;;;;1.17;0.50;;;10.50;68.00;;;;;;5055667;28;20039;-66
2021/01/22 07:22:21;;;;;;;0.85;0.52;;;10.50;67.70;;;;;;5059087;28;20816;-66
2021/01/22 07:24:49;;;;;;;1.00;0.57;;;10.50;68.20;;;;;;5040081;28;20040;-66
2021/01/22 07:27:16;;;;;;;2.38;0.75;;;10.40;68.40;;;;;;5058452;28;20039;-74
2021/01/22 07:29:41;;;;;;;0.95;0.60;;;10.50;68.10;;;;;;5059344;28;20032;-67
2021/01/22 07:32:09;;;;;;;1.95;0.60;;;10.50;68.20;;;;;;5059414;28;20036;-67
2021/01/22 07:34:51;;;;;;;0.73;0.57;;;10.50;68.40;;;;;;5058227;28;20067;-66
2021/01/22 07:37:18;;;;;;;1.15;0.43;;;10.60;68.10;;;;;;5058027;28;20028;-68
2021/01/22 07:39:45;;;;;;;1.42;0.50;;;10.50;67.80;;;;;;5057382;28;20095;-65
2021/01/22 07:42:12;;;;;;;0.82;0.50;;;10.60;68.10;;;;;;5054267;28;20040;-66
2021/01/22 07:44:50;;;;;;;1.75;0.70;;;10.70;67.90;;;;;;5040230;28;20475;-66
2021/01/22 07:47:26;;;;;;;1.10;0.60;;;10.80;67.50;;;;;;5057331;28;20136;-65
2021/01/22 07:49:53;;;;;;;;;;;10.80;67.60;;;;;;5069895;28;20032;-66
2021/01/22 07:52:19;;;;;;;4.43;1.58;;;10.90;67.50;;;;;;5058355;28;19912;-65
2021/01/22 07:54:44;;;;;;;2.42;1.17;;;11.00;67.40;;;;;;5058132;28;20614;-65
2021/01/22 07:57:26;;;;;;;1.13;0.98;;;11.00;66.90;;;;;;5057387;28;20036;-65
2021/01/22 07:59:53;;;;;;;3.08;0.70;;;11.10;66.60;;;;;;5052600;28;20043;-70
2021/01/22 08:02:23;;;;;;;2.55;0.90;;;11.20;66.40;;;;;;5053487;28;20093;-70
2021/01/22 08:05:00;;;;;;;1.25;0.77;;;11.20;66.60;;;;;;5052450;28;20064;-69
2021/01/22 08:07:37;;;;;;;0.73;0.60;;;11.20;67.00;;;;;;5044154;28;20079;-70
2021/01/22 08:10:09;;;;;;;2.13;0.52;;;11.10;67.10;;;;;;5051888;28;20029;-67
2021/01/22 08:12:36;;;;;;;1.23;0.60;;;11.20;68.10;;;;;;5054924;28;20148;-66
2021/01/22 08:15:18;;;;;;;2.15;0.80;;;11.20;67.50;;;;;;5053806;28;20064;-66
2021/01/22 08:17:47;;;;;;;3.03;0.60;;;11.10;67.70;;;;;;5057303;28;20036;-66
2021/01/22 08:20:15;;;;;;;1.05;0.70;;;11.10;68.40;;;;;;5057467;28;20044;-65
2021/01/22 08:22:41;;;;;;;4.00;0.93;;;11.10;69.80;;;;;;5058053;28;20048;-65
2021/01/22 08:25:08;;;;;;;2.15;0.80;;;10.90;74.80;;;;;;5056380;28;20071;-66
2021/01/22 08:27:34;;;;;;;2.80;0.90;;;10.80;76.90;;;;;;5057167;28;20036;-66
2021/01/22 08:30:00;;;;;;;3.20;1.80;;;10.60;77.30;;;;;;5056899;28;20039;-66
2021/01/22 08:32:28;;;;;;;2.03;1.02;;;10.40;77.80;;;;;;5057305;28;20400;-65
2021/01/22 08:34:55;;;;;;;0.80;0.80;;;10.20;77.90;;;;;;5056835;28;20040;-66
2021/01/22 08:37:21;;;;;;;0.93;0.60;;;9.90;79.30;;;;;;5057069;28;20127;-66
2021/01/22 08:39:58;;;;;;;0.30;0.30;;;9.70;79.70;;;;;;5056824;28;20772;-66
2021/01/22 08:42:27;;;;;;;0.20;0.15;;;9.70;80.80;;;;;;5054719;28;20499;-66
2021/01/22 08:45:01;;;;;;;0.45;0.28;;;9.60;80.70;;;;;;5057559;28;20035;-65
2021/01/22 08:47:29;;;;;;;0.25;0.25;;;9.50;80.80;;;;;;5053467;28;20135;-65
2021/01/22 08:50:04;;;;;;;0.20;0.20;;;9.50;80.80;;;;;;5053432;28;20046;-65
2021/01/22 08:52:30;;;;;;;0.17;0.10;;;9.50;81.30;;;;;;5055471;28;20047;-65
2021/01/22 08:54:58;;;;;;;1.23;0.30;;;9.40;81.40;;;;;;5056835;28;20268;-65
2021/01/22 08:57:29;;;;;;;1.25;0.30;;;9.50;81.40;;;;;;5056729;28;20044;-66
2021/01/22 08:59:57;;;;;;;1.50;0.65;;;9.40;81.80;;;;;;5051473;28;20622;-66
2021/01/22 09:02:39;;;;;;;1.33;0.32;;;9.40;81.60;;;;;;5056690;28;20058;-66
2021/01/22 09:05:10;;;;;;;4.70;2.22;;;9.40;81.90;;;;;;5057113;28;20032;-66
2021/01/22 09:07:36;;;;;;;1.02;0.60;;;9.30;82.20;;;;;;5057344;28;20025;-66
2021/01/22 09:10:02;;;;;;;2.80;0.50;;;9.30;82.00;;;;;;5057272;28;20036;-66
2021/01/22 09:12:30;;;;;;;0.20;0.20;;;9.30;82.30;;;;;;5057080;28;20060;-65
2021/01/22 09:15:04;;;;;;;1.00;0.50;;;9.40;82.00;;;;;;5057087;28;20407;-65
2021/01/22 09:17:53;;;;;;;0.63;0.50;;;9.30;81.40;;;;;;5056852;28;20055;-66
2021/01/22 09:20:29;;;;;;;0.50;0.50;;;9.40;81.70;;;;;;5057205;28;20036;-66
2021/01/22 09:23:02;;;;;;;0.30;0.30;;;9.40;81.70;;;;;;5053089;28;20067;-66
2021/01/22 09:25:28;;;;;;;1.48;0.40;;;9.50;80.70;;;;;;5056053;28;20083;-67
2021/01/22 09:27:54;;;;;;;1.65;0.65;;;9.60;80.50;;;;;;5059478;28;20102;-66
2021/01/22 09:30:22;;;;;;;0.38;0.38;;;9.60;80.20;;;;;;5060555;28;21203;-66
2021/01/22 09:32:50;;;;;;;0.80;0.60;;;9.70;79.80;;;;;;5042939;28;20039;-65
2021/01/22 09:35:17;;;;;;;0.77;0.57;;;9.70;79.40;;;;;;5054582;28;20682;-65
2021/01/22 09:37:43;;;;;;;0.57;0.10;;;9.70;79.30;;;;;;5060792;28;20811;-66
2021/01/22 09:40:09;;;;;;;0.47;0.28;;;9.80;78.70;;;;;;5055661;28;20156;-66
2021/01/22 09:42:36;;;;;;;1.00;0.40;;;9.70;78.50;;;;;;5055969;28;20363;-66
2021/01/22 09:45:03;;;;;;;0.50;0.40;;;9.70;78.90;;;;;;5055881;28;20036;-66
2021/01/22 09:47:29;;;;;;;0.20;0.20;;;9.70;78.20;;;;;;5060660;28;20028;-66
2021/01/22 09:49:55;;;;;;;2.00;1.17;;;9.70;77.10;;;;;;5060800;28;20921;-65
2021/01/22 09:52:21;;;;;;;1.38;0.50;;;9.80;77.00;;;;;;5057707;28;20036;-66
2021/01/22 09:54:47;;;;;;;0.20;0.20;;;9.90;76.40;;;;;;5058755;28;20043;-66
2021/01/22 09:57:13;;;;;;;0.70;0.20;;;9.90;75.70;;;;;;5059753;28;20376;-66
2021/01/22 09:59:39;;;;;;;0.60;0.10;;;9.90;74.00;;;;;;5057496;28;20691;-66
2021/01/22 10:02:04;;;;;;;0.38;0.30;;;9.80;73.30;;;;;;5059326;28;20533;-66
2021/01/22 10:04:30;;;;;;;1.13;0.15;;;9.70;73.90;;;;;;5057961;28;20119;-66
2021/01/22 10:06:56;;;;;;;0.20;0.10;;;9.70;74.90;;;;;;5059930;28;20135;-66
2021/01/22 10:09:22;;;;;;;0.60;0.40;;;9.60;74.70;;;;;;5058102;28;20174;-66
2021/01/22 10:11:48;;;;;;;0.25;0.20;;;9.50;73.80;;;;;;5058564;28;20017;-67
2021/01/22 10:14:13;;;;;;;0.55;0.30;;;9.50;74.10;;;;;;5057549;28;20537;-66
2021/01/22 10:16:39;;;;;;;0.28;0.28;;;9.50;73.90;;;;;;5057478;28;20079;-66
2021/01/22 10:19:05;;;;;;;0.17;0.17;;;9.50;74.20;;;;;;5059563;28;20090;-66
2021/01/22 10:21:31;;;;;;;2.03;0.13;;;9.50;72.90;;;;;;5059975;28;20036;-68
2021/01/22 10:23:57;;;;;;;0.10;0.10;;;9.30;72.00;;;;;;5059416;28;20029;-66
2021/01/22 10:26:23;;;;;;;0.30;0.20;;;9.30;71.60;;;;;;5049836;28;20038;-66
2021/01/22 10:28:50;;;;;;;0.47;0.20;;;9.30;71.70;;;;;;5059591;28;20085;-76
2021/01/22 10:31:17;;;;;;;1.17;0.60;;;9.30;72.00;;;;;;5059590;28;20086;-66
2021/01/22 10:33:43;;;;;;;2.25;1.80;;;9.30;72.00;;;;;;5059071;28;20042;-65
2021/01/22 10:36:09;;;;;;;2.20;1.25;;;9.40;72.30;;;;;;5057900;28;20074;-65
2021/01/22 10:38:35;;;;;;;1.25;0.22;;;9.50;72.90;;;;;;5056772;28;20883;-64
2021/01/22 10:41:02;;;;;;;0.40;0.40;;;9.40;70.80;;;;;;5055404;28;20064;-65
2021/01/22 10:43:28;;;;;;;0.22;0.20;;;9.40;72.00;;;;;;5057135;28;20040;-65
2021/01/22 10:45:54;;;;;;;2.65;0.47;;;9.50;72.10;;;;;;5058723;28;20094;-65
2021/01/22 10:48:20;;;;;;;1.30;0.20;;;9.70;72.60;;;;;;5057001;28;20028;-64
2021/01/22 10:50:46;;;;;;;0.43;0.30;;;9.70;72.20;;;;;;5057413;28;20042;-66
2021/01/22 10:53:12;;;;;;;0.70;0.30;;;9.80;72.80;;;;;;5049819;28;20025;-66
2021/01/22 10:55:38;;;;;;;0.68;0.50;;;9.70;73.20;;;;;;5045091;28;20469;-65
2021/01/22 10:58:04;;;;;;;1.05;0.52;;;9.60;72.90;;;;;;5056055;28;20132;-66
2021/01/22 11:00:32;;;;;;;1.75;0.60;;;9.60;73.30;;;;;;5048533;28;20078;-65
2021/01/22 11:02:58;;;;;;;2.55;1.27;;;9.60;73.80;;;;;;5056833;28;20054;-65
2021/01/22 11:05:24;;;;;;;1.67;1.00;;;9.40;72.80;;;;;;5056384;28;20070;-65
2021/01/22 11:07:49;;;;;;;2.08;0.90;;;9.20;72.50;;;;;;5059158;28;20036;-65
2021/01/22 11:10:15;;;;;;;1.92;0.85;;;9.10;73.20;;;;;;5053851;28;20037;-66
2021/01/22 11:12:41;;;;;;;3.45;1.45;;;9.20;73.70;;;;;;5053762;28;20033;-66
2021/01/22 11:15:07;;;;;;;8.57;3.45;;;9.30;74.00;;;;;;5058769;28;20046;-65
2021/01/22 11:17:33;;;;;;;3.58;1.65;;;9.30;73.90;;;;;;5058668;28;20040;-65
2021/01/22 11:20:02;;;;;;;1.67;0.80;;;9.20;72.60;;;;;;5059031;28;20040;-66
2021/01/22 11:22:29;;;;;;;1.33;0.80;;;9.10;72.20;;;;;;5056788;28;20098;-66
2021/01/22 11:24:54;;;;;;;2.00;1.00;;;9.10;72.80;;;;;;5059110;28;20040;-66
2021/01/22 11:27:20;;;;;;;0.88;0.57;;;9.20;72.10;;;;;;5054085;28;20039;-66
2021/01/22 11:29:46;;;;;;;3.13;0.50;;;9.00;71.70;;;;;;5053760;28;20048;-65
2021/01/22 11:32:12;;;;;;;2.75;0.68;;;9.00;72.00;;;;;;5059420;28;20024;-65
2021/01/22 11:34:37;;;;;;;0.50;0.50;;;9.10;72.70;;;;;;5050790;28;20475;-67
2021/01/22 11:37:03;;;;;;;2.75;0.70;;;9.20;72.30;;;;;;5059539;28;20107;-66
2021/01/22 11:39:30;;;;;;;0.38;0.28;;;9.20;71.90;;;;;;5051299;28;20028;-65
2021/01/22 11:41:56;;;;;;;3.60;0.50;;;9.20;72.00;;;;;;5055966;28;20105;-66
2021/01/22 11:44:22;;;;;;;0.50;0.50;;;9.20;72.30;;;;;;5058559;28;20064;-68
2021/01/22 11:46:48;;;;;;;3.72;0.70;;;9.30;71.30;;;;;;5057065;28;20128;-65
2021/01/22 11:49:13;;;;;;;0.68;0.30;;;9.30;71.70;;;;;;5058050;28;20024;-65
2021/01/22 11:51:39;;;;;;;0.57;0.40;;;9.30;71.70;;;;;;5056366;28;20033;-65
2021/01/22 11:54:05;;;;;;;0.68;0.50;;;9.30;71.10;;;;;;5058926;28;20032;-65
2021/01/22 11:56:32;;;;;;;1.35;0.55;;;9.30;72.10;;;;;;5046718;28;20836;-65
2021/01/22 11:58:57;;;;;;;1.02;0.50;;;9.40;71.80;;;;;;5058216;28;20037;-65
2021/01/22 12:01:24;;;;;;;1.60;0.80;;;9.40;71.20;;;;;;5058184;28;20480;-65
2021/01/22 12:03:51;;;;;;;5.28;2.10;;;9.40;71.40;;;;;;5058531;28;20099;-65
2021/01/22 12:06:17;;;;;;;2.83;1.40;;;9.40;71.10;;;;;;5057671;28;20039;-66
2021/01/22 12:08:43;;;;;;;4.60;1.70;;;9.50;70.00;;;;;;5052133;28;20033;-65
2021/01/22 12:11:09;;;;;;;3.40;0.93;;;9.50;70.30;;;;;;5051941;28;20111;-66
2021/01/22 12:13:34;;;;;;;4.63;0.70;;;9.50;69.70;;;;;;5057168;28;20035;-65
2021/01/22 12:16:00;;;;;;;1.30;0.70;;;9.50;70.40;;;;;;5049616;28;20691;-63
2021/01/22 12:18:26;;;;;;;5.93;2.97;;;9.50;69.30;;;;;;5049764;28;20500;-62
2021/01/22 12:20:51;;;;;;;2.25;0.80;;;9.40;70.20;;;;;;5057926;28;20031;-63
2021/01/22 12:23:17;;;;;;;1.58;0.50;;;9.50;70.50;;;;;;5057462;28;20136;-63
2021/01/22 12:25:46;;;;;;;1.48;0.50;;;9.60;70.90;;;;;;5056706;28;20135;-63
2021/01/22 12:28:15;;;;;;;1.17;0.60;;;9.60;69.50;;;;;;5057492;28;20062;-63
2021/01/22 12:30:42;;;;;;;2.08;0.40;;;9.60;68.80;;;;;;5058098;28;20754;-63
2021/01/22 12:33:08;;;;;;;2.03;0.80;;;9.70;69.00;;;;;;5056931;28;20852;-63
2021/01/22 12:35:34;;;;;;;4.85;0.80;;;9.60;68.10;;;;;;5055158;28;20109;-63
2021/01/22 12:38:00;;;;;;;0.40;0.40;;;9.60;69.30;;;;;;5052103;28;20094;-63
2021/01/22 12:40:26;;;;;;;2.85;1.05;;;9.60;68.90;;;;;;5054137;28;20033;-62
2021/01/22 12:42:51;;;;;;;1.38;0.70;;;9.60;68.70;;;;;;5057676;28;20032;-64
2021/01/22 12:45:18;;;;;;;0.43;0.40;;;9.60;69.60;;;;;;5053922;28;20040;-63
2021/01/22 12:47:44;;;;;;;2.25;1.00;;;9.60;69.10;;;;;;5057353;28;20055;-62
2021/01/22 12:50:10;;;;;;;8.98;3.55;;;9.60;68.80;;;;;;5057456;28;20028;-63
2021/01/22 12:52:38;;;;;;;2.53;0.90;;;9.60;68.00;;;;;;5055064;28;20033;-63
2021/01/22 12:55:07;;;;;;;1.58;0.30;;;9.60;68.90;;;;;;5055499;28;20064;-63